Time;durP1;ratioP1;P1;durP2;ratioP2;P2;SDS_P1;SDS_P2;PMS_P1;PMS_P2;Temp;Humidity;BMP_temperature;BMP_pressure;BME280_temperature;BME280_humidity;BME280_pressure;Samples;Min_cycle;Max_cycle;Signal;HPM_P1;HPM_P2
2021/09/07 00:02:27;;;;;;;27.62;15.78;;;;;;;9.59;62.26;100251.97;1890009;76;22108;-61
2021/09/07 00:05:02;;;;;;;27.30;15.68;;;;;;;9.58;62.08;100248.94;1889956;76;22119;-59
2021/09/07 00:07:37;;;;;;;32.60;15.23;;;;;;;9.57;62.10;100245.91;1890086;76;22140;-60
2021/09/07 00:10:31;;;;;;;30.32;15.68;;;;;;;9.56;62.01;100254.44;1870659;76;22196;-66
2021/09/07 00:13:06;;;;;;;28.05;15.88;;;;;;;9.55;62.18;100255.27;1870648;76;22136;-66
2021/09/07 00:16:03;;;;;;;36.58;17.23;;;;;;;9.52;62.49;100250.02;1870604;76;22224;-69
2021/09/07 00:18:58;;;;;;;29.87;15.53;;;;;;;9.49;62.60;100249.50;1870608;76;22145;-71
2021/09/07 00:21:33;;;;;;;28.67;16.82;;;;;;;9.47;62.69;100248.98;1870697;76;22145;-52
2021/09/07 00:24:08;;;;;;;29.82;16.00;;;;;;;9.45;62.83;100247.63;1870720;76;22156;-58
2021/09/07 00:27:02;;;;;;;32.17;16.57;;;;;;;9.46;62.79;100248.49;1870708;76;22543;-57
2021/09/07 00:29:37;;;;;;;39.08;16.70;;;;;;;9.44;62.86;100253.99;1870707;76;22128;-63
2021/09/07 00:32:12;;;;;;;29.72;16.97;;;;;;;9.40;62.92;100245.70;1890009;76;22541;-59
2021/09/07 00:34:46;;;;;;;30.72;16.00;;;;;;;9.38;63.07;100252.50;1889964;76;22112;-57
2021/09/07 00:37:42;;;;;;;28.60;15.53;;;;;;;9.37;63.26;100254.20;1870680;76;22160;-65
2021/09/07 00:40:18;;;;;;;31.37;16.42;;;;;;;9.35;63.27;100245.53;1870490;76;22592;-54
2021/09/07 00:43:13;;;;;;;27.87;15.98;;;;;;;9.35;63.27;100248.98;1870739;76;22132;-58
2021/09/07 00:46:07;;;;;;;31.33;15.75;;;;;;;9.34;63.42;100249.81;1870915;76;22583;-57
2021/09/07 00:48:42;;;;;;;28.07;15.63;;;;;;;9.32;63.46;100248.88;1890204;76;22104;-60
2021/09/07 00:51:16;;;;;;;29.15;15.90;;;;;;;9.31;63.55;100252.28;1870950;76;22109;-61
2021/09/07 00:53:51;;;;;;;35.15;15.63;;;;;;;9.31;63.70;100247.13;1870694;76;22109;-60
2021/09/07 00:56:46;;;;;;;29.05;15.90;;;;;;;9.30;63.77;100242.78;1870658;76;22145;-66
2021/09/07 00:59:30;;;;;;;32.28;16.57;;;;;;;9.31;63.82;100244.56;1890190;76;22187;-68
2021/09/07 01:02:25;;;;;;;30.12;15.78;;;;;;;9.31;64.09;100241.98;1890007;76;22167;-56
2021/09/07 01:05:26;;;;;;;30.77;15.88;;;;;;;9.30;63.98;100245.77;1889892;76;22187;-59
2021/09/07 01:08:01;;;;;;;33.30;17.87;;;;;;;9.27;64.12;100243.97;1889982;76;22100;-60
2021/09/07 01:10:36;;;;;;;31.15;19.10;;;;;;;9.26;64.15;100242.61;1854805;76;27950;-62
2021/09/07 01:13:11;;;;;;;32.67;17.50;;;;;;;9.29;64.29;100238.47;1835119;77;22184;-59
2021/09/07 01:15:48;;;;;;;33.23;17.80;;;;;;;9.28;64.50;100238.40;1870763;76;22136;-61
2021/09/07 01:18:23;;;;;;;32.83;16.65;;;;;;;9.25;64.50;100240.45;1870882;76;22113;-59
2021/09/07 01:20:58;;;;;;;33.40;17.90;;;;;;;9.22;64.55;100244.20;1854832;76;28334;-59
2021/09/07 01:23:34;;;;;;;28.52;15.48;;;;;;;9.25;64.75;100247.30;1870606;76;22136;-54
2021/09/07 01:26:15;;;;;;;28.15;15.45;;;;;;;9.22;64.80;100245.91;1870705;76;22152;-59
2021/09/07 01:29:09;;;;;;;30.43;15.50;;;;;;;9.17;65.09;100243.16;1870759;76;22509;-61
2021/09/07 01:31:46;;;;;;;26.80;14.85;;;;;;;9.13;65.21;100243.85;1870467;76;22189;-61
2021/09/07 01:34:23;;;;;;;33.67;17.95;;;;;;;9.12;65.24;100243.40;1854735;76;28369;-60
2021/09/07 01:36:59;;;;;;;30.75;17.00;;;;;;;9.15;65.28;100240.94;1889959;76;22171;-61
2021/09/07 01:39:53;;;;;;;27.87;15.63;;;;;;;9.16;65.26;100242.70;1889896;76;22144;-70
2021/09/07 01:42:28;;;;;;;27.45;15.00;;;;;;;9.13;65.19;100239.98;1870703;76;22532;-68
2021/09/07 01:45:45;;;;;;;31.50;15.03;;;;;;;9.13;65.16;100238.70;1868380;75;22637;-60
2021/09/07 01:48:24;;;;;;;28.00;14.03;;;;;;;9.10;65.20;100237.31;1870654;76;22136;-65
2021/09/07 01:51:18;;;;;;;27.10;14.25;;;;;;;9.08;65.05;100235.98;1870673;76;22540;-63
2021/09/07 01:54:14;;;;;;;31.45;15.65;;;;;;;9.05;65.18;100237.13;1890221;76;22202;-63
2021/09/07 01:56:49;;;;;;;29.00;14.75;;;;;;;9.02;65.47;100242.59;1890269;76;20207;-65
2021/09/07 01:59:24;;;;;;;28.12;15.15;;;;;;;9.00;65.67;100236.08;1870907;76;22571;-63
2021/09/07 02:02:01;;;;;;;29.95;16.25;;;;;;;8.98;65.79;100236.84;1873886;76;27933;-55
2021/09/07 02:04:37;;;;;;;28.95;14.25;;;;;;;9.02;65.74;100244.75;1889937;76;22132;-64
2021/09/07 02:07:32;;;;;;;25.23;13.95;;;;;;;8.99;65.72;100241.19;1870639;76;22120;-62
2021/09/07 02:10:15;;;;;;;25.92;14.03;;;;;;;8.98;65.82;100248.42;1890153;76;22187;-59
2021/09/07 02:13:09;;;;;;;30.12;14.75;;;;;;;8.96;65.90;100247.52;1870696;76;22579;-59
2021/09/07 02:15:51;;;;;;;24.70;14.07;;;;;;;8.94;66.03;100247.86;1869784;76;22156;-62
2021/09/07 02:18:25;;;;;;;25.68;13.10;;;;;;;8.91;66.24;100250.78;1870725;76;22101;-56
2021/09/07 02:21:00;;;;;;;30.27;14.43;;;;;;;8.89;66.30;100248.55;1889969;76;22554;-56
2021/09/07 02:23:55;;;;;;;25.70;13.85;;;;;;;8.87;66.39;100241.17;1889947;76;22144;-65
2021/09/07 02:26:30;;;;;;;29.82;14.35;;;;;;;8.84;66.42;100242.35;1870698;76;22531;-59
2021/09/07 02:29:26;;;;;;;26.65;15.30;;;;;;;8.81;66.45;100235.80;1854797;76;28404;-64
2021/09/07 02:32:03;;;;;;;26.87;14.50;;;;;;;8.87;66.41;100246.73;1870490;76;22140;-60
2021/09/07 02:34:39;;;;;;;23.73;13.30;;;;;;;8.85;66.57;100245.41;1870718;76;20097;-66
2021/09/07 02:37:34;;;;;;;26.75;13.43;;;;;;;8.82;66.61;100240.54;1890033;76;22159;-60
2021/09/07 02:40:10;;;;;;;27.37;14.85;;;;;;;8.79;66.71;100245.16;1870803;76;22523;-60
2021/09/07 02:42:45;;;;;;;25.32;13.30;;;;;;;8.76;66.93;100242.47;1870697;76;22156;-64
2021/09/07 02:45:39;;;;;;;25.32;13.08;;;;;;;8.74;66.96;100247.97;1870659;76;22148;-58
2021/09/07 02:48:34;;;;;;;28.02;14.35;;;;;;;8.71;67.03;100241.42;1870665;76;22125;-66
2021/09/07 02:51:09;;;;;;;25.08;13.25;;;;;;;8.68;67.12;100244.75;1870694;76;22109;-62
2021/09/07 02:54:04;;;;;;;26.68;12.98;;;;;;;8.67;67.18;100247.25;1870670;76;22552;-60
2021/09/07 02:56:58;;;;;;;25.88;12.53;;;;;;;8.67;67.10;100248.53;1870737;76;22149;-62
2021/09/07 03:00:00;;;;;;;21.68;11.55;;;;;;;8.65;67.12;100247.59;1890036;76;22175;-62
2021/09/07 03:02:54;;;;;;;24.05;12.40;;;;;;;8.65;67.03;100245.92;1871088;76;22532;-59
2021/09/07 03:05:36;;;;;;;24.75;12.63;;;;;;;8.67;67.05;100244.67;1870106;76;22136;-62
2021/09/07 03:08:11;;;;;;;26.80;12.85;;;;;;;8.66;66.98;100245.51;1871051;76;22523;-62
2021/09/07 03:10:47;;;;;;;23.57;11.95;;;;;;;8.66;67.01;100246.38;1870756;76;22205;-58
2021/09/07 03:13:23;;;;;;;24.72;13.78;;;;;;;8.64;67.03;100254.86;1874091;76;27928;-64
2021/09/07 03:15:58;;;;;;;25.10;13.72;;;;;;;8.71;67.01;100244.41;1855060;76;27941;-63
2021/09/07 03:18:53;;;;;;;22.02;11.85;;;;;;;8.83;66.98;100252.19;1890187;76;22140;-59
2021/09/07 03:21:33;;;;;;;22.22;11.80;;;;;;;8.83;66.86;100250.91;1869989;76;22164;-63
2021/09/07 03:24:08;;;;;;;22.07;11.20;;;;;;;8.86;66.83;100251.44;1870862;76;22145;-65
2021/09/07 03:26:45;;;;;;;25.35;12.18;;;;;;;8.90;66.71;100258.05;1870609;76;22140;-59
2021/09/07 03:29:19;;;;;;;22.62;11.55;;;;;;;8.93;66.63;100254.72;1890112;76;22136;-61
2021/09/07 03:31:56;;;;;;;24.50;11.90;;;;;;;8.95;66.51;100255.62;1870665;76;22267;-58
2021/09/07 03:34:31;;;;;;;26.10;12.53;;;;;;;8.94;66.50;100255.17;1890236;76;22112;-62
2021/09/07 03:37:06;;;;;;;23.77;13.28;;;;;;;8.98;66.53;100262.20;1854875;76;28372;-65
2021/09/07 03:39:42;;;;;;;24.50;12.47;;;;;;;9.07;66.40;100257.80;1890126;76;22161;-60
2021/09/07 03:42:17;;;;;;;29.85;11.83;;;;;;;9.08;66.28;100260.83;1870979;76;22543;-63
2021/09/07 03:45:01;;;;;;;24.90;11.78;;;;;;;9.10;66.32;100259.20;1890134;76;22220;-62
2021/09/07 03:47:36;;;;;;;23.90;12.85;;;;;;;9.12;66.25;100254.98;1890129;76;22237;-61
2021/09/07 03:50:14;;;;;;;20.85;11.08;;;;;;;9.16;66.15;100251.72;1870564;76;22141;-66
2021/09/07 03:53:09;;;;;;;24.92;11.65;;;;;;;9.19;66.00;100254.41;1890177;76;22531;-66
2021/09/07 03:55:44;;;;;;;23.73;13.03;;;;;;;9.23;65.92;100254.96;1855011;76;27958;-71
2021/09/07 03:58:19;;;;;;;23.02;11.83;;;;;;;9.30;65.80;100253.09;1870791;76;22113;-67
2021/09/07 04:01:00;;;;;;;24.23;12.63;;;;;;;9.32;65.70;100252.73;1870059;76;22165;-65
2021/09/07 04:03:35;;;;;;;25.12;12.43;;;;;;;9.38;65.62;100258.94;1870657;76;22559;-63
2021/09/07 04:06:29;;;;;;;23.92;12.07;;;;;;;9.43;65.52;100254.41;1870734;76;23187;-62
2021/09/07 04:09:04;;;;;;;23.70;11.55;;;;;;;9.47;65.44;100257.99;1890107;76;22108;-60
2021/09/07 04:11:59;;;;;;;24.72;11.65;;;;;;;9.54;65.37;100257.36;1870824;76;22144;-66
2021/09/07 04:14:53;;;;;;;21.05;11.05;;;;;;;9.60;65.24;100258.89;1870767;76;22117;-62
2021/09/07 04:17:28;;;;;;;24.23;12.03;;;;;;;9.66;65.09;100259.09;1870922;76;22137;-65
2021/09/07 04:20:23;;;;;;;20.52;11.63;;;;;;;9.78;64.84;100260.82;1889971;76;22144;-67
2021/09/07 04:22:58;;;;;;;24.75;11.25;;;;;;;9.90;64.52;100264.67;1870739;76;22101;-58
2021/09/07 04:25:37;;;;;;;23.02;12.28;;;;;;;10.00;64.25;100264.16;1870576;76;22141;-65
2021/09/07 04:28:12;;;;;;;22.25;11.22;;;;;;;10.12;64.03;100264.55;1890037;76;22103;-62
2021/09/07 04:30:52;;;;;;;22.30;11.10;;;;;;;10.26;63.80;100269.31;1869914;76;22137;-65
2021/09/07 04:33:48;;;;;;;19.92;11.68;;;;;;;10.41;63.50;100264.69;1872714;75;22205;-67
2021/09/07 04:36:23;;;;;;;21.50;11.38;;;;;;;10.52;63.16;100268.48;1870921;76;22132;-67
2021/09/07 04:38:58;;;;;;;20.08;11.30;;;;;;;10.64;62.93;100261.55;1870787;76;22109;-65
2021/09/07 04:41:32;;;;;;;20.90;11.08;;;;;;;10.78;62.62;100269.72;1870650;76;22096;-67
2021/09/07 04:44:14;;;;;;;23.85;11.68;;;;;;;10.92;62.33;100268.45;1889917;76;22180;-61
2021/09/07 04:46:48;;;;;;;24.95;11.28;;;;;;;11.10;62.18;100267.25;1870641;76;22168;-62
2021/09/07 04:49:43;;;;;;;21.10;11.85;;;;;;;11.45;61.56;100261.39;1870621;76;22182;-66
2021/09/07 04:52:18;;;;;;;23.77;11.05;;;;;;;12.14;60.86;100267.58;1890022;76;22144;-67
2021/09/07 04:54:58;;;;;;;22.00;10.63;;;;;;;13.30;58.67;100261.64;1869788;76;22140;-64
2021/09/07 04:57:34;;;;;;;18.12;11.08;;;;;;;14.57;55.67;100267.02;1854739;76;27962;-68
2021/09/07 05:00:11;;;;;;;23.32;10.43;;;;;;;15.94;52.60;100263.61;1889961;76;22586;-69
2021/09/07 05:02:46;;;;;;;16.57;10.13;;;;;;;17.05;49.27;100267.55;1870765;76;22113;-62
2021/09/07 05:05:21;;;;;;;22.55;11.22;;;;;;;17.85;46.72;100273.11;1870755;76;22136;-64
2021/09/07 05:07:58;;;;;;;21.00;9.65;;;;;;;18.52;44.61;100271.42;1889919;76;22184;-64
2021/09/07 05:10:51;;;;;;;16.55;10.10;;;;;;;19.32;42.98;100268.70;1870540;76;22145;-66
2021/09/07 05:13:27;;;;;;;17.07;10.45;;;;;;;20.20;40.61;100275.23;1889877;76;22167;-61
2021/09/07 05:16:02;;;;;;;16.67;8.90;;;;;;;21.15;38.96;100275.67;1870639;76;22133;-65
2021/09/07 05:18:58;;;;;;;18.80;10.05;;;;;;;22.36;36.79;100282.39;1874023;76;27934;-65
2021/09/07 05:21:33;;;;;;;19.27;9.18;;;;;;;23.38;34.95;100287.60;1871043;76;22109;-64
2021/09/07 05:24:26;;;;;;;16.82;9.68;;;;;;;24.22;33.15;100302.47;1890222;76;22120;-67
2021/09/07 05:27:26;;;;;;;15.32;9.43;;;;;;;24.95;32.22;100308.17;1869836;76;22157;-69
2021/09/07 05:30:06;;;;;;;15.45;8.33;;;;;;;25.70;30.74;100305.64;1859959;76;22164;-61
2021/09/07 05:33:06;;;;;;;12.63;7.75;;;;;;;26.51;29.69;100309.30;1869765;76;22168;-69
2021/09/07 05:35:42;;;;;;;18.85;9.18;;;;;;;27.37;28.59;100312.52;1889990;76;22108;-68
2021/09/07 05:38:17;;;;;;;17.77;8.23;;;;;;;28.67;26.36;100314.53;1854859;76;27930;-70
2021/09/07 05:41:11;;;;;;;14.75;7.70;;;;;;;28.88;26.24;100322.55;1889847;76;22199;-64
2021/09/07 05:43:46;;;;;;;16.55;6.78;;;;;;;29.54;25.76;100326.27;1889974;76;22115;-64
2021/09/07 05:46:21;;;;;;;13.93;6.87;;;;;;;30.44;24.51;100335.82;1870679;76;22547;-65
2021/09/07 05:48:57;;;;;;;13.18;6.72;;;;;;;31.51;23.40;100340.98;1889907;76;22590;-69
2021/09/07 05:51:32;;;;;;;13.13;6.72;;;;;;;32.38;21.92;100341.94;1889921;76;22243;-66
2021/09/07 05:54:26;;;;;;;13.18;6.20;;;;;;;32.05;21.65;100346.06;1867137;76;22148;-62
2021/09/07 05:57:01;;;;;;;12.68;6.20;;;;;;;31.94;22.21;100356.02;1864372;76;22276;-65
2021/09/07 06:00:03;;;;;;;9.45;5.80;;;;;;;32.67;21.11;100353.25;1926444;73;22067;-62
2021/09/07 06:02:38;;;;;;;12.93;5.50;;;;;;;32.94;20.92;100363.66;1856014;76;22260;-58
2021/09/07 06:05:32;;;;;;;10.20;5.97;;;;;;;33.27;20.50;100366.62;1870350;76;22260;-65
2021/09/07 06:08:28;;;;;;;8.73;5.40;;;;;;;33.57;19.98;100377.28;1864044;76;22094;-64
2021/09/07 06:11:04;;;;;;;11.30;5.47;;;;;;;33.15;20.28;100368.70;1853323;76;22078;-63
2021/09/07 06:14:06;;;;;;;9.38;5.25;;;;;;;33.37;20.20;100373.13;1883467;76;22358;-63
2021/09/07 06:17:00;;;;;;;9.98;5.37;;;;;;;33.22;20.02;100375.41;1861507;76;22286;-63
2021/09/07 06:19:36;;;;;;;7.87;5.25;;;;;;;33.22;20.14;100379.42;1870099;76;22494;-63
2021/09/07 06:22:31;;;;;;;11.78;4.85;;;;;;;33.45;19.74;100389.56;1853217;76;22085;-61
2021/09/07 06:25:07;;;;;;;8.78;5.08;;;;;;;33.57;19.59;100385.80;1854137;76;22102;-61
2021/09/07 06:28:03;;;;;;;18.77;7.45;;;;;;;33.30;19.98;100394.52;1853529;76;22527;-63
2021/09/07 06:30:44;;;;;;;19.35;6.85;;;;;;;33.47;19.94;100389.48;1863274;76;22100;-60
2021/09/07 06:33:25;;;;;;;10.45;5.80;;;;;;;34.09;19.57;100390.09;1867352;76;22128;-60
2021/09/07 06:36:20;;;;;;;15.15;5.53;;;;;;;34.58;18.91;100390.08;1854664;76;22536;-62
2021/09/07 06:38:55;;;;;;;13.85;6.45;;;;;;;34.75;18.64;100399.17;1850489;76;22465;-61
2021/09/07 06:41:50;;;;;;;7.12;4.58;;;;;;;34.60;18.89;100397.52;1856437;76;22485;-62
2021/09/07 06:44:25;;;;;;;11.08;5.83;;;;;;;35.03;18.39;100405.36;1851511;76;28352;-61
2021/09/07 06:47:25;;;;;;;13.15;6.20;;;;;;;35.60;18.08;100405.04;1852452;76;22125;-60
2021/09/07 06:50:20;;;;;;;10.60;5.90;;;;;;;36.02;17.75;100406.95;1855072;76;22118;-63
2021/09/07 06:53:20;;;;;;;10.05;5.97;;;;;;;35.96;17.88;100406.55;1863685;76;22276;-64
2021/09/07 06:55:56;;;;;;;13.90;6.42;;;;;;;36.19;17.57;100419.70;1852665;76;22544;-64
2021/09/07 06:58:37;;;;;;;10.35;5.40;;;;;;;36.48;17.55;100422.42;1864676;76;22180;-64
2021/09/07 07:01:31;;;;;;;9.08;5.58;;;;;;;36.98;17.00;100422.81;1852232;76;22117;-61
2021/09/07 07:04:26;;;;;;;9.30;5.75;;;;;;;36.61;17.12;100413.47;1873530;76;22101;-61
2021/09/07 07:07:07;;;;;;;9.73;5.28;;;;;;;36.43;17.16;100419.70;1889525;76;22129;-59
2021/09/07 07:09:42;;;;;;;8.68;4.97;;;;;;;36.37;17.27;100420.17;1889872;76;22082;-61
2021/09/07 07:12:23;;;;;;;11.80;5.58;;;;;;;36.15;17.18;100422.22;1869814;76;22215;-61
2021/09/07 07:14:58;;;;;;;9.35;5.10;;;;;;;35.50;17.74;100419.20;1889868;76;22482;-62
2021/09/07 07:17:33;;;;;;;11.43;5.35;;;;;;;35.35;18.19;100423.31;1870452;76;22058;-63
2021/09/07 07:20:14;;;;;;;9.40;5.03;;;;;;;35.72;17.83;100419.90;1869744;76;22124;-61
2021/09/07 07:22:55;;;;;;;8.58;5.05;;;;;;;36.16;17.60;100417.23;1869667;76;22122;-62
2021/09/07 07:25:49;;;;;;;8.75;4.85;;;;;;;36.79;17.12;100420.19;1834855;77;22074;-61
2021/09/07 07:28:43;;;;;;;8.98;4.80;;;;;;;37.30;16.73;100421.23;1870503;76;22090;-59
2021/09/07 07:31:20;;;;;;;10.50;4.58;;;;;;;37.69;16.28;100428.52;1870333;76;22497;-66
2021/09/07 07:33:54;;;;;;;9.85;5.00;;;;;;;38.08;16.06;100431.72;1870618;76;22551;-61
2021/09/07 07:36:30;;;;;;;8.63;4.67;;;;;;;37.79;16.07;100429.50;1870546;76;22086;-67
2021/09/07 07:39:05;;;;;;;8.20;4.62;;;;;;;37.49;16.52;100429.20;1889878;76;22078;-64
2021/09/07 07:41:40;;;;;;;9.83;4.63;;;;;;;37.72;16.34;100432.80;1873972;76;27967;-66
2021/09/07 07:44:16;;;;;;;8.18;4.03;;;;;;;37.53;16.23;100429.34;1853346;76;22097;-70
2021/09/07 07:47:10;;;;;;;6.87;4.45;;;;;;;37.15;16.35;100435.38;1889699;76;22090;-62
2021/09/07 07:49:45;;;;;;;6.28;3.95;;;;;;;36.83;16.20;100427.52;1866592;76;22090;-69
2021/09/07 07:52:39;;;;;;;8.03;4.22;;;;;;;36.33;16.69;100422.70;1889240;76;22081;-62
2021/09/07 07:55:14;;;;;;;7.12;4.15;;;;;;;36.14;17.00;100427.23;1869130;76;22568;-65
2021/09/07 07:57:50;;;;;;;7.92;3.33;;;;;;;35.75;16.97;100421.02;1889720;76;22075;-66
2021/09/07 08:00:46;;;;;;;6.72;3.85;;;;;;;35.54;17.05;100421.53;1870346;76;22694;-66
2021/09/07 08:03:20;;;;;;;7.62;3.83;;;;;;;35.79;17.02;100421.19;1838833;76;22108;-65
2021/09/07 08:06:16;;;;;;;6.25;3.22;;;;;;;36.07;16.62;100411.53;1854481;76;27898;-63
2021/09/07 08:09:11;;;;;;;6.37;2.90;;;;;;;35.16;16.18;100414.80;1819317;77;38383;-59
2021/09/07 08:11:52;;;;;;;5.47;2.58;;;;;;;34.95;16.59;100412.58;1869748;76;22079;-63
2021/09/07 08:14:32;;;;;;;4.70;2.92;;;;;;;34.78;16.21;100417.77;1882758;76;22085;-65
2021/09/07 08:17:07;;;;;;;5.30;2.17;;;;;;;33.14;17.66;100407.12;1852526;76;22113;-70
2021/09/07 08:20:01;;;;;;;5.20;2.70;;;;;;;31.98;18.17;100399.42;1850173;76;22507;-63
2021/09/07 08:22:43;;;;;;;6.90;2.72;;;;;;;29.75;20.44;100385.67;1860838;76;22555;-62
2021/09/07 08:25:38;;;;;;;4.55;2.22;;;;;;;29.01;21.47;100395.50;1837292;76;37585;-68
2021/09/07 08:28:32;;;;;;;6.47;2.30;;;;;;;29.93;20.41;100396.80;1863295;76;22128;-63
2021/09/07 08:31:13;;;;;;;5.53;2.55;;;;;;;30.62;19.65;100390.85;1889858;76;22484;-58
2021/09/07 08:33:48;;;;;;;5.28;2.20;;;;;;;30.67;19.67;100395.96;1852829;76;22300;-67
2021/09/07 08:36:22;;;;;;;6.45;2.47;;;;;;;30.64;19.80;100392.13;1853239;76;22073;-65
2021/09/07 08:39:16;;;;;;;4.97;2.02;;;;;;;30.70;19.81;100399.80;1853729;76;22121;-59
2021/09/07 08:41:51;;;;;;;4.55;1.90;;;;;;;29.45;20.66;100379.90;1855887;76;22157;-63
2021/09/07 08:44:26;;;;;;;5.28;2.50;;;;;;;28.54;21.27;100385.89;1870721;76;22063;-62
2021/09/07 08:47:00;;;;;;;9.10;2.40;;;;;;;28.43;21.45;100388.10;1870800;76;22058;-64
2021/09/07 08:49:35;;;;;;;3.92;1.80;;;;;;;28.65;21.59;100385.48;1847813;76;22117;-66
2021/09/07 08:52:13;;;;;;;5.17;1.95;;;;;;;28.83;21.54;100384.33;1890121;76;22070;-61
2021/09/07 08:54:46;;;;;;;5.40;1.85;;;;;;;28.30;21.74;100376.25;1870731;76;22114;-71
2021/09/07 08:57:46;;;;;;;3.12;1.55;;;;;;;27.57;22.11;100387.37;1889642;76;22325;-58
2021/09/07 09:00:29;;;;;;;5.15;2.10;;;;;;;27.18;22.55;100383.04;1854536;76;27883;-68
2021/09/07 09:03:13;;;;;;;5.90;1.52;;;;;;;27.10;23.00;100373.14;1870527;76;22371;-61
2021/09/07 09:06:06;;;;;;;6.17;2.20;;;;;;;26.50;22.82;100371.98;1889809;76;22243;-57
2021/09/07 09:09:07;;;;;;;4.83;2.27;;;;;;;25.95;23.96;100371.92;1870368;76;22091;-62
2021/09/07 09:11:57;;;;;;;8.05;2.40;;;;;;;25.43;24.79;100353.55;1870629;76;22481;-64
2021/09/07 09:14:52;;;;;;;5.87;2.77;;;;;;;24.62;26.01;100349.91;1889650;76;22066;-68
2021/09/07 09:17:50;;;;;;;5.15;2.12;;;;;;;23.82;27.01;100353.49;1867831;76;22654;-62
2021/09/07 09:20:43;;;;;;;7.42;2.50;;;;;;;23.34;27.93;100360.13;1887543;76;22630;-67
2021/09/07 09:23:20;;;;;;;5.15;2.00;;;;;;;23.10;28.47;100355.75;1846027;76;22277;-57
2021/09/07 09:25:54;;;;;;;4.40;2.00;;;;;;;23.00;29.11;100359.45;1887741;76;22670;-63
2021/09/07 09:28:30;;;;;;;6.60;2.22;;;;;;;22.83;29.05;100354.88;1869079;76;22189;-60
2021/09/07 09:31:06;;;;;;;6.00;2.30;;;;;;;22.58;29.21;100348.70;1854556;76;28379;-62
2021/09/07 09:33:40;;;;;;;7.42;2.45;;;;;;;22.41;29.60;100350.72;1870602;76;22136;-66
2021/09/07 09:36:21;;;;;;;5.47;2.77;;;;;;;22.11;30.36;100345.00;1854560;76;28064;-66
2021/09/07 09:39:40;;;;;;;4.85;2.25;;;;;;;21.82;31.30;100345.38;1867451;76;22568;-70
2021/09/07 09:42:27;;;;;;;4.62;2.45;;;;;;;21.65;31.59;100340.33;1853490;76;22156;-66
2021/09/07 09:45:07;;;;;;;5.47;2.70;;;;;;;21.49;32.31;100342.73;1870600;76;22112;-64
2021/09/07 09:47:56;;;;;;;6.80;2.42;;;;;;;21.32;32.59;100331.95;1870542;76;22145;-62
2021/09/07 09:50:55;;;;;;;5.67;2.60;;;;;;;20.91;32.68;100341.09;1870650;76;22139;-67
2021/09/07 09:53:50;;;;;;;9.38;2.87;;;;;;;20.14;34.17;100332.47;1870768;76;22542;-70
2021/09/07 09:56:45;;;;;;;7.08;2.52;;;;;;;20.04;34.29;100330.78;1870764;76;22112;-56
2021/09/07 09:59:23;;;;;;;6.03;2.92;;;;;;;20.16;33.88;100335.96;1839846;76;22200;-65
2021/09/07 10:02:18;;;;;;;7.17;3.20;;;;;;;20.39;34.50;100338.42;1870544;76;22578;-65
2021/09/07 10:04:53;;;;;;;7.17;3.00;;;;;;;20.32;34.17;100321.44;1889952;76;22186;-58
2021/09/07 10:07:47;;;;;;;9.30;2.92;;;;;;;20.06;34.94;100336.03;1870516;76;22536;-59
2021/09/07 10:10:23;;;;;;;6.25;2.98;;;;;;;20.11;34.98;100342.98;1854466;76;28479;-71
2021/09/07 10:13:00;;;;;;;5.42;2.65;;;;;;;20.34;34.37;100337.59;1862752;76;22176;-59
2021/09/07 10:15:39;;;;;;;5.25;2.70;;;;;;;20.49;34.45;100336.61;1870808;76;20348;-64
2021/09/07 10:26:52;;;;;;;6.80;2.35;;;;;;;20.52;34.21;100339.20;1889907;76;22139;-69
2021/09/07 10:29:36;;;;;;;6.25;2.60;;;;;;;20.44;34.22;100334.47;1870271;76;22160;-68
2021/09/07 10:32:31;;;;;;;6.47;2.60;;;;;;;20.46;34.80;100329.22;1866426;76;22157;-66
2021/09/07 10:35:12;;;;;;;5.80;2.77;;;;;;;20.30;34.86;100332.37;1851054;76;22140;-62
2021/09/07 10:38:11;;;;;;;5.60;2.50;;;;;;;20.16;35.14;100327.23;1852655;76;22578;-67
2021/09/07 10:41:05;;;;;;;8.10;2.45;;;;;;;20.08;35.28;100325.97;1856443;76;22176;-59
2021/09/07 10:44:05;;;;;;;5.37;2.67;;;;;;;20.05;35.35;100320.75;1870529;76;22208;-61
2021/09/07 10:46:58;;;;;;;5.22;2.45;;;;;;;20.21;35.37;100314.10;1870514;76;22169;-60
2021/09/07 10:49:55;;;;;;;6.37;2.70;;;;;;;20.38;34.89;100316.17;1869461;76;22144;-56
2021/09/07 10:52:49;;;;;;;5.58;2.33;;;;;;;20.46;35.09;100322.22;1859595;76;22140;-63
2021/09/07 10:55:43;;;;;;;6.70;2.50;;;;;;;20.39;34.77;100320.52;1889758;76;22143;-67
2021/09/07 10:58:33;;;;;;;7.30;2.50;;;;;;;20.36;34.54;100323.17;1869831;76;22139;-68
2021/09/07 11:01:30;;;;;;;7.05;2.65;;;;;;;20.42;34.39;100327.05;1870341;76;22164;-62
2021/09/07 11:04:31;;;;;;;7.33;3.05;;;;;;;20.68;34.51;100311.57;1854825;76;27928;-62
2021/09/07 11:07:46;;;;;;;9.78;2.58;;;;;;;20.82;34.40;100301.83;1886876;76;22147;-64
2021/09/07 11:10:49;;;;;;;5.67;2.52;;;;;;;20.78;33.87;100305.36;1866977;76;22156;-61
2021/09/07 11:13:28;;;;;;;5.35;2.30;;;;;;;20.80;34.00;100314.95;1870642;76;22168;-62
2021/09/07 11:16:22;;;;;;;4.22;2.12;;;;;;;20.93;33.70;100311.77;1866132;76;22140;-55
2021/09/07 11:19:15;;;;;;;8.35;2.65;;;;;;;21.02;33.66;100308.20;1870580;76;22197;-64
2021/09/07 11:21:51;;;;;;;6.40;2.30;;;;;;;21.07;33.67;100309.47;1889751;76;22304;-67
2021/09/07 11:24:46;;;;;;;4.35;2.30;;;;;;;20.83;33.78;100303.56;1870374;76;22257;-60
2021/09/07 11:27:22;;;;;;;12.03;2.45;;;;;;;20.77;33.67;100299.69;1864246;76;22179;-64
2021/09/07 11:30:00;;;;;;;5.85;2.83;;;;;;;20.78;33.59;100300.11;1867921;76;22179;-65
2021/09/07 11:33:01;;;;;;;5.45;2.67;;;;;;;20.77;33.39;100295.31;1889833;76;22604;-68
2021/09/07 11:35:43;;;;;;;5.55;2.45;;;;;;;20.42;35.00;100274.60;1868897;76;22216;-54
2021/09/07 11:38:41;;;;;;;5.95;2.42;;;;;;;20.39;34.96;100278.56;1870400;76;22188;-67
2021/09/07 11:41:21;;;;;;;6.80;2.50;;;;;;;20.45;34.77;100278.50;1870292;76;22626;-68
2021/09/07 11:44:17;;;;;;;6.15;2.62;;;;;;;20.56;34.67;100285.89;1870419;76;22204;-57
2021/09/07 11:46:52;;;;;;;6.62;3.15;;;;;;;20.64;34.71;100275.78;1873839;76;27919;-58
2021/09/07 11:49:52;;;;;;;11.75;2.67;;;;;;;20.79;34.46;100284.36;1889919;76;22136;-55
2021/09/07 11:52:27;;;;;;;6.37;2.58;;;;;;;20.79;34.41;100284.81;1854674;76;27896;-59
2021/09/07 11:55:43;;;;;;;5.95;2.17;;;;;;;20.76;33.91;100283.50;1870414;76;22124;-62
2021/09/07 11:58:40;;;;;;;8.63;2.55;;;;;;;20.94;34.34;100275.48;1869782;76;22164;-62
2021/09/07 12:01:34;;;;;;;5.97;2.62;;;;;;;21.24;34.55;100270.75;1870382;76;22141;-61
2021/09/07 12:04:19;;;;;;;6.03;2.98;;;;;;;21.57;33.88;100266.00;1889886;76;22184;-57
2021/09/07 12:07:12;;;;;;;9.05;2.80;;;;;;;21.53;32.79;100266.95;1854737;76;28305;-57
2021/09/07 12:10:07;;;;;;;10.08;2.70;;;;;;;21.53;33.30;100263.02;1870676;76;22540;-55
2021/09/07 12:13:06;;;;;;;6.62;2.80;;;;;;;21.68;33.02;100254.47;1870812;76;22164;-60
2021/09/07 12:15:42;;;;;;;5.10;2.67;;;;;;;21.71;32.74;100261.45;1870446;76;22592;-64
2021/09/07 12:18:41;;;;;;;6.55;2.40;;;;;;;21.75;32.92;100257.86;1870364;76;22137;-60
2021/09/07 12:21:24;;;;;;;7.17;2.70;;;;;;;21.79;32.64;100253.45;1870489;76;22129;-63
2021/09/07 12:24:18;;;;;;;9.20;2.90;;;;;;;21.92;33.27;100247.12;1889836;76;22558;-59
2021/09/07 12:27:22;;;;;;;11.45;2.80;;;;;;;21.94;32.74;100242.72;1870325;76;22168;-61
2021/09/07 12:30:21;;;;;;;6.92;2.65;;;;;;;22.00;32.38;100237.80;1870473;76;23719;-63
2021/09/07 12:33:19;;;;;;;5.90;2.47;;;;;;;22.13;31.56;100235.84;1889818;76;22151;-57
2021/09/07 12:36:11;;;;;;;7.03;3.00;;;;;;;21.87;32.20;100231.41;1889837;76;22143;-65
2021/09/07 12:39:04;;;;;;;9.98;3.17;;;;;;;21.47;33.13;100231.11;1870659;76;22571;-60
2021/09/07 12:41:58;;;;;;;7.40;3.00;;;;;;;21.50;33.62;100230.19;1870369;76;22113;-62
2021/09/07 12:44:33;;;;;;;6.85;2.45;;;;;;;21.68;33.06;100232.14;1889960;76;22144;-60
2021/09/07 12:47:09;;;;;;;6.45;2.62;;;;;;;21.89;32.75;100229.64;1870398;76;22604;-61
2021/09/07 12:49:44;;;;;;;6.40;3.00;;;;;;;22.06;32.86;100216.24;1870550;76;22542;-59